createdAt,value
2018-11-28T00:01:58.262Z,86.44
2018-11-28T00:04:29.628Z,86.95
2018-11-28T00:06:59.890Z,86.59
2018-11-28T00:09:29.869Z,86.79
2018-11-28T00:11:59.872Z,85.75
2018-11-28T00:14:29.838Z,86.34
2018-11-28T00:16:59.950Z,86.54
2018-11-28T00:19:30.463Z,86.99
2018-11-28T00:22:00.506Z,86.66
2018-11-28T00:24:30.530Z,87.11
2018-11-28T00:27:00.571Z,86.63
2018-11-28T00:29:30.579Z,87.22
2018-11-28T00:32:01.804Z,85.47
2018-11-28T00:34:31.867Z,86.12
2018-11-28T00:37:02.109Z,86.18
2018-11-28T00:39:32.101Z,86.63
2018-11-28T00:42:02.655Z,85.92
2018-11-28T00:44:33.036Z,87.06
2018-11-28T00:47:03.051Z,86.86
2018-11-28T00:49:33.062Z,85.69
2018-11-28T00:52:03.588Z,86.05
2018-11-28T00:54:33.683Z,86.03
2018-11-28T00:57:03.798Z,87.04
2018-11-28T00:59:34.216Z,86.02
2018-11-28T01:02:04.206Z,85.42
2018-11-28T01:04:34.444Z,85.41
2018-11-28T01:07:04.461Z,85.30
2018-11-28T01:09:34.500Z,85.98
2018-11-28T01:12:04.523Z,86.08
2018-11-28T01:14:34.521Z,85.33
2018-11-28T01:17:05.826Z,86.06
2018-11-28T01:19:36.067Z,85.97
2018-11-28T01:22:06.556Z,86.02
2018-11-28T01:24:37.015Z,85.95
2018-11-28T01:27:07.384Z,86.89
2018-11-28T01:29:37.394Z,86.20
2018-11-28T01:32:07.745Z,86.25
2018-11-28T01:34:37.865Z,86.02
2018-11-28T01:37:08.107Z,85.97
2018-11-28T01:39:38.388Z,86.60
2018-11-28T01:42:08.819Z,85.60
2018-11-28T01:44:38.937Z,85.90
2018-11-28T01:47:09.511Z,87.21
2018-11-28T01:49:39.687Z,86.72
2018-11-28T01:52:09.693Z,86.69
2018-11-28T01:54:39.674Z,86.39
2018-11-28T01:57:10.223Z,86.20
2018-11-28T01:59:40.312Z,87.19
2018-11-28T02:02:11.237Z,87.30
2018-11-28T02:04:41.375Z,86.79
2018-11-28T02:07:11.925Z,86.90
2018-11-28T02:09:41.995Z,86.33
2018-11-28T02:12:11.969Z,86.69
2018-11-28T02:14:41.988Z,86.95
2018-11-28T02:17:12.103Z,87.06
2018-11-28T02:19:42.112Z,86.25
2018-11-28T02:22:12.163Z,87.24
2018-11-28T02:24:42.222Z,86.81
2018-11-28T02:27:12.209Z,87.16
2018-11-28T02:29:42.302Z,86.92
2018-11-28T02:32:12.367Z,87.62
2018-11-28T02:34:42.597Z,86.83
2018-11-28T02:37:12.649Z,87.38
2018-11-28T02:39:42.648Z,87.02
2018-11-28T02:42:12.798Z,87.42
2018-11-28T02:44:42.859Z,87.48
2018-11-28T02:47:12.938Z,86.82
2018-11-28T02:49:42.973Z,87.76
2018-11-28T02:52:13.098Z,87.45
2018-11-28T02:54:43.303Z,87.56
2018-11-28T02:57:13.424Z,87.75
2018-11-28T02:59:43.539Z,87.44
2018-11-28T03:02:13.647Z,87.73
2018-11-28T03:04:43.755Z,87.59
2018-11-28T03:07:13.910Z,87.15
2018-11-28T03:09:44.070Z,87.42
2018-11-28T03:12:14.307Z,87.51
2018-11-28T03:14:44.306Z,87.58
2018-11-28T03:17:28.422Z,88.44
2018-11-28T03:19:58.473Z,87.81
2018-11-28T03:22:28.538Z,87.66
2018-11-28T03:24:58.702Z,87.74
2018-11-28T03:27:28.675Z,87.84
2018-11-28T03:29:58.924Z,88.25
2018-11-28T03:32:28.997Z,87.95
2018-11-28T03:34:59.038Z,87.91
2018-11-28T03:37:29.083Z,88.31
2018-11-28T03:39:59.135Z,89.07
2018-11-28T03:42:29.131Z,88.50
2018-11-28T03:44:59.361Z,88.54
2018-11-28T03:47:29.471Z,88.50
2018-11-28T03:49:59.535Z,87.92
2018-11-28T03:52:29.551Z,88.34
2018-11-28T03:54:59.693Z,88.68
2018-11-28T03:57:29.804Z,88.38
2018-11-28T03:59:59.845Z,87.37
2018-11-28T04:02:30.055Z,87.69
2018-11-28T04:05:00.175Z,88.56
2018-11-28T04:07:30.167Z,87.92
2018-11-28T04:10:00.232Z,88.41
2018-11-28T04:12:30.258Z,88.58
2018-11-28T04:15:00.413Z,88.04
2018-11-28T04:17:30.574Z,88.54
2018-11-28T04:20:00.722Z,88.33
2018-11-28T04:22:30.778Z,88.33
2018-11-28T04:25:00.869Z,88.25
2018-11-28T04:27:30.855Z,87.95
2018-11-28T04:30:01.103Z,88.07
2018-11-28T04:32:31.213Z,89.00
2018-11-28T04:35:01.275Z,88.82
2018-11-28T04:37:31.450Z,89.10
2018-11-28T04:40:01.597Z,88.81
2018-11-28T04:42:31.719Z,88.96
2018-11-28T04:45:01.848Z,88.29
2018-11-28T04:47:31.848Z,88.08
2018-11-28T04:50:01.917Z,88.13
2018-11-28T04:52:32.069Z,88.40
2018-11-28T04:55:02.147Z,88.55
2018-11-28T04:57:32.261Z,88.29
2018-11-28T05:00:02.323Z,88.48
2018-11-28T05:02:32.358Z,88.54
2018-11-28T05:05:02.567Z,88.47
2018-11-28T05:07:32.611Z,88.07
2018-11-28T05:10:03.426Z,88.76
2018-11-28T05:12:33.660Z,89.11
2018-11-28T05:15:03.962Z,87.95
2018-11-28T05:17:34.230Z,87.94
2018-11-28T05:20:04.521Z,88.02
2018-11-28T05:22:34.757Z,89.13
2018-11-28T05:25:05.409Z,89.46
2018-11-28T05:27:35.604Z,88.54
2018-11-28T05:30:09.246Z,88.79
2018-11-28T05:32:39.737Z,88.22
2018-11-28T05:35:11.935Z,87.60
2018-11-28T05:37:42.568Z,88.68
2018-11-28T05:40:20.011Z,88.43
2018-11-28T05:42:50.269Z,88.68
2018-11-28T05:45:21.414Z,87.80
2018-11-28T05:47:51.968Z,89.05
2018-11-28T05:50:23.318Z,88.85
2018-11-28T05:52:53.406Z,88.31
2018-11-28T05:55:24.217Z,88.05
2018-11-28T05:57:54.251Z,87.76
2018-11-28T06:00:33.740Z,87.63
2018-11-28T06:03:05.686Z,87.82
2018-11-28T06:05:36.171Z,87.62
2018-11-28T06:08:06.922Z,88.01
2018-11-28T06:10:36.909Z,87.02
2018-11-28T06:16:08.674Z,88.06
2018-11-28T06:18:38.936Z,87.79
2018-11-28T06:21:09.214Z,87.45
2018-11-28T06:23:39.408Z,87.06
2018-11-28T06:26:11.060Z,87.54
2018-11-28T06:28:42.648Z,86.65
2018-11-28T06:31:12.835Z,86.13
2018-11-28T06:33:43.094Z,87.22
2018-11-28T06:36:13.769Z,86.82
2018-11-28T06:38:43.887Z,86.47
2018-11-28T06:41:14.145Z,86.88
2018-11-28T06:43:44.223Z,86.05
2018-11-28T06:46:14.424Z,86.39
2018-11-28T06:48:44.656Z,86.39
2018-11-28T06:51:14.977Z,86.84
2018-11-28T06:53:45.159Z,86.35
2018-11-28T06:56:15.432Z,86.41
2018-11-28T06:58:45.602Z,86.68
2018-11-28T07:01:23.452Z,87.01
2018-11-28T07:03:53.706Z,85.61
2018-11-28T07:06:23.789Z,86.15
2018-11-28T07:08:53.995Z,86.10
2018-11-28T07:11:24.138Z,86.25
2018-11-28T07:13:54.326Z,86.39
2018-11-28T07:16:24.797Z,86.07
2018-11-28T07:19:16.278Z,85.69
2018-11-28T07:21:46.478Z,86.13
2018-11-28T07:24:16.624Z,86.82
2018-11-28T07:26:48.843Z,85.70
2018-11-28T07:29:18.919Z,86.19
2018-11-28T07:31:49.153Z,86.55
2018-11-28T07:34:19.338Z,86.46
2018-11-28T07:36:49.560Z,85.85
2018-11-28T07:39:19.824Z,85.47
2018-11-28T07:41:50.133Z,86.09
2018-11-28T07:44:20.412Z,85.60
2018-11-28T07:46:50.554Z,85.71
2018-11-28T07:49:20.705Z,85.99
2018-11-28T07:51:51.305Z,86.15
2018-11-28T07:54:21.538Z,85.52
2018-11-28T07:56:51.721Z,85.73
2018-11-28T07:59:22.051Z,86.20
2018-11-28T08:01:52.536Z,86.54
2018-11-28T08:04:22.826Z,86.32
2018-11-28T08:06:52.908Z,86.06
2018-11-28T08:09:23.058Z,85.59
2018-11-28T08:11:53.304Z,85.55
2018-11-28T08:14:23.440Z,85.86
2018-11-28T08:16:53.602Z,86.06
2018-11-28T08:19:24.131Z,86.34
2018-11-28T08:21:54.284Z,85.60
2018-11-28T08:24:24.538Z,85.52
2018-11-28T08:26:54.719Z,86.15
2018-11-28T08:29:25.490Z,86.09
2018-11-28T08:31:55.612Z,86.17
2018-11-28T08:34:25.869Z,85.80
2018-11-28T08:36:55.978Z,85.91
2018-11-28T08:39:26.107Z,86.39
2018-11-28T08:41:56.505Z,86.88
2018-11-28T08:44:26.594Z,86.37
2018-11-28T08:46:56.822Z,85.97
2018-11-28T08:49:27.088Z,86.12
2018-11-28T08:51:57.428Z,86.48
2018-11-28T08:54:27.723Z,85.28
2018-11-28T08:56:57.965Z,85.60
2018-11-28T08:59:28.131Z,85.73
2018-11-28T09:01:58.365Z,85.89
2018-11-28T09:04:28.615Z,85.96
2018-11-28T09:06:58.831Z,85.94
2018-11-28T09:09:29.093Z,85.89
2018-11-28T09:11:59.245Z,85.62
2018-11-28T09:14:29.396Z,86.26
2018-11-28T09:16:59.563Z,85.60
2018-11-28T09:19:29.673Z,85.12
2018-11-28T09:21:59.997Z,85.53
2018-11-28T09:24:30.079Z,84.90
2018-11-28T09:27:00.276Z,85.46
2018-11-28T09:29:30.525Z,85.19
2018-11-28T09:32:00.783Z,85.37
2018-11-28T09:34:31.063Z,85.11
2018-11-28T09:37:01.247Z,84.39
2018-11-28T09:39:31.389Z,84.57
2018-11-28T09:42:01.565Z,85.19
2018-11-28T09:44:31.664Z,84.75
2018-11-28T09:47:01.827Z,84.53
2018-11-28T09:49:32.087Z,84.85
2018-11-28T09:52:02.271Z,85.17
2018-11-28T09:54:32.425Z,84.75
2018-11-28T09:57:02.674Z,84.23
2018-11-28T09:59:33.044Z,84.47
2018-11-28T10:02:03.349Z,84.11
2018-11-28T10:04:33.534Z,83.73
2018-11-28T10:07:03.730Z,84.15
2018-11-28T10:09:33.746Z,84.81
2018-11-28T10:12:04.156Z,84.86
2018-11-28T10:14:34.591Z,83.76
2018-11-28T10:17:04.638Z,83.40
2018-11-28T10:19:34.972Z,84.16
2018-11-28T10:22:05.067Z,83.95
2018-11-28T10:24:35.176Z,83.67
2018-11-28T10:27:05.484Z,83.60
2018-11-28T10:29:35.719Z,83.02
2018-11-28T10:32:05.899Z,83.15
2018-11-28T10:34:36.224Z,82.64
2018-11-28T10:37:06.366Z,82.28
2018-11-28T10:39:36.486Z,82.14
2018-11-28T10:42:07.003Z,82.10
2018-11-28T10:44:37.445Z,82.04
2018-11-28T10:47:07.590Z,82.48
2018-11-28T10:49:37.726Z,82.11
2018-11-28T10:52:08.426Z,81.87
2018-11-28T10:54:38.495Z,82.03
2018-11-28T10:57:09.191Z,82.23
2018-11-28T10:59:39.313Z,81.14
2018-11-28T11:04:16.371Z,81.02
2018-11-28T11:06:51.584Z,81.10
2018-11-28T11:09:26.589Z,80.35
2018-11-28T11:12:01.705Z,80.59
2018-11-28T11:14:51.887Z,80.51
2018-11-28T11:17:21.996Z,80.67
2018-11-28T11:19:52.094Z,80.17
2018-11-28T11:22:22.197Z,79.97
2018-11-28T11:24:52.412Z,80.18
2018-11-28T11:27:22.475Z,79.85
2018-11-28T11:29:52.539Z,79.29
2018-11-28T11:32:22.625Z,79.13
2018-11-28T11:34:52.605Z,79.46
2018-11-28T11:37:23.347Z,79.52
2018-11-28T11:39:53.524Z,79.52
2018-11-28T11:42:23.619Z,78.54
2018-11-28T11:44:53.954Z,78.94
2018-11-28T11:47:23.942Z,78.25
2018-11-28T11:49:53.989Z,78.06
2018-11-28T11:52:24.592Z,78.38
2018-11-28T11:54:54.704Z,78.30
2018-11-28T11:57:37.852Z,79.15
2018-11-28T12:00:19.412Z,77.90
2018-11-28T12:03:03.201Z,78.59
2018-11-28T12:05:33.263Z,78.04
2018-11-28T12:08:05.238Z,78.76
2018-11-28T12:10:35.767Z,77.81
2018-11-28T12:13:06.465Z,78.07
2018-11-28T12:15:38.391Z,78.73
2018-11-28T12:18:08.596Z,78.75
2018-11-28T12:20:46.339Z,78.77
2018-11-28T12:23:16.566Z,78.44
2018-11-28T12:25:46.786Z,78.20
2018-11-28T12:28:17.083Z,77.59
2018-11-28T12:30:47.208Z,77.72
2018-11-28T12:33:27.166Z,77.27
2018-11-28T12:35:58.989Z,77.82
2018-11-28T12:38:30.578Z,77.08
2018-11-28T12:41:04.371Z,77.44
2018-11-28T12:43:34.580Z,76.51
2018-11-28T12:46:04.873Z,77.45
2018-11-28T12:48:35.200Z,77.44
2018-11-28T12:53:53.590Z,77.21
2018-11-28T12:56:30.321Z,77.67
2018-11-28T12:59:00.659Z,77.50
2018-11-28T13:01:30.957Z,76.26
2018-11-28T13:04:01.165Z,76.99
2018-11-28T13:06:31.711Z,76.45
2018-11-28T13:09:01.958Z,77.12
2018-11-28T13:11:32.067Z,77.31
2018-11-28T13:14:02.166Z,76.61
2018-11-28T13:16:33.214Z,77.00
2018-11-28T13:21:51.508Z,76.69
2018-11-28T13:27:15.361Z,76.27
2018-11-28T13:29:45.543Z,76.44
2018-11-28T13:32:17.561Z,76.69
2018-11-28T13:35:15.794Z,76.81
2018-11-28T13:37:50.165Z,77.13
2018-11-28T13:46:07.288Z,76.56
2018-11-28T13:51:21.457Z,77.74
2018-11-28T13:53:51.658Z,76.46
2018-11-28T13:59:59.999Z,76.52
2018-11-28T14:02:30.068Z,77.02
2018-11-28T14:05:27.299Z,76.71
2018-11-28T14:10:46.477Z,75.78
2018-11-28T14:13:23.237Z,76.44
2018-11-28T14:15:53.427Z,77.45
2018-11-28T14:21:57.354Z,76.33
2018-11-28T14:27:29.579Z,76.67
2018-11-28T14:29:59.790Z,76.33
2018-11-28T14:32:31.795Z,76.46
2018-11-28T14:35:07.565Z,76.16
2018-11-28T14:37:38.076Z,75.85
2018-11-28T14:40:16.108Z,75.87
2018-11-28T14:42:47.859Z,76.79
2018-11-28T14:45:19.002Z,76.43
2018-11-28T14:47:50.198Z,76.89
2018-11-28T14:50:28.115Z,76.75
2018-11-28T14:57:02.664Z,76.34
2018-11-28T14:59:32.862Z,76.41
2018-11-28T15:04:55.901Z,76.41
2018-11-28T15:07:26.725Z,76.15
2018-11-28T15:10:04.351Z,77.24
2018-11-28T15:12:35.886Z,76.36
2018-11-28T15:15:08.108Z,77.27
2018-11-28T15:17:38.294Z,77.16
2018-11-28T15:20:09.916Z,77.32
2018-11-28T15:22:41.326Z,78.06
2018-11-28T15:25:11.949Z,77.64
2018-11-28T15:27:42.337Z,78.10
2018-11-28T15:30:12.782Z,78.14
2018-11-28T15:32:43.288Z,77.67
2018-11-28T15:35:14.782Z,77.88
2018-11-28T15:37:45.101Z,78.21
2018-11-28T15:40:18.243Z,78.31
2018-11-28T15:42:48.962Z,77.60
2018-11-28T15:45:19.099Z,77.92
2018-11-28T15:47:49.206Z,78.17
2018-11-28T15:50:19.383Z,78.27
2018-11-28T15:52:49.954Z,77.79
2018-11-28T15:55:20.027Z,77.78
2018-11-28T15:57:50.081Z,77.43
2018-11-28T16:00:24.900Z,77.84
2018-11-28T16:02:55.703Z,77.99
2018-11-28T16:05:29.812Z,78.16
2018-11-28T16:08:07.814Z,77.81
2018-11-28T16:10:41.164Z,78.24
2018-11-28T16:13:18.732Z,78.06
2018-11-28T16:15:54.920Z,78.07
2018-11-28T16:18:31.413Z,77.78
2018-11-28T16:21:09.181Z,78.26
2018-11-28T16:23:49.000Z,78.43
2018-11-28T16:26:19.565Z,78.54
2018-11-28T16:28:50.005Z,78.42
2018-11-28T16:31:20.158Z,79.25
2018-11-28T16:34:03.421Z,79.93
2018-11-28T16:36:34.227Z,80.17
2018-11-28T16:39:05.471Z,80.77
2018-11-28T16:41:36.313Z,81.51
2018-11-28T16:44:16.796Z,82.25
2018-11-28T16:49:49.792Z,83.36
2018-11-28T16:52:20.999Z,82.93
2018-11-28T16:55:19.157Z,84.02
2018-11-28T16:57:55.057Z,84.22
2018-11-28T17:00:28.294Z,84.53
2018-11-28T17:09:31.180Z,86.06
2018-11-28T17:12:01.233Z,85.37
2018-11-28T17:14:32.052Z,85.87
2018-11-28T17:17:03.677Z,86.15
2018-11-28T17:19:34.230Z,86.90
2018-11-28T17:22:05.776Z,85.87
2018-11-28T17:24:36.456Z,86.46
2018-11-28T17:27:07.097Z,85.73
2018-11-28T17:29:39.836Z,86.00
2018-11-28T17:34:59.520Z,86.15
2018-11-28T17:37:30.530Z,86.95
2018-11-28T17:40:25.490Z,87.42
2018-11-28T17:42:59.355Z,87.11
2018-11-28T17:54:43.634Z,88.03
2018-11-28T17:57:13.754Z,87.75
2018-11-28T17:59:52.105Z,87.15
2018-11-28T18:05:22.204Z,87.74
2018-11-28T18:07:55.887Z,87.28
2018-11-28T18:10:42.431Z,88.00
2018-11-28T18:13:19.946Z,88.12
2018-11-28T18:16:15.108Z,88.43
2018-11-28T18:18:59.733Z,88.61
2018-11-28T18:21:33.422Z,88.52
2018-11-28T18:24:03.533Z,88.70
2018-11-28T18:26:39.418Z,89.27
2018-11-28T18:29:09.494Z,89.04
2018-11-28T18:31:39.650Z,88.73
2018-11-28T18:34:09.726Z,89.95
2018-11-28T18:36:41.725Z,88.79
2018-11-28T18:39:14.093Z,88.95
2018-11-28T18:41:44.109Z,88.80
2018-11-28T18:44:14.162Z,89.13
2018-11-28T18:46:44.253Z,89.08
2018-11-28T18:49:38.977Z,89.45
2018-11-28T18:52:09.557Z,88.49
2018-11-28T18:54:39.655Z,88.89
2018-11-28T18:57:33.812Z,88.46
2018-11-28T19:03:12.106Z,88.51
2018-11-28T19:05:44.984Z,89.29
2018-11-28T19:08:15.111Z,89.25
2018-11-28T19:10:45.180Z,88.64
2018-11-28T19:13:15.266Z,88.85
2018-11-28T19:15:45.390Z,88.78
2018-11-28T19:18:15.404Z,88.37
2018-11-28T19:20:45.521Z,88.52
2018-11-28T19:23:15.291Z,88.92
2018-11-28T19:28:54.708Z,88.67
2018-11-28T19:31:25.269Z,89.36
2018-11-28T19:33:56.816Z,89.06
2018-11-28T19:36:26.972Z,88.97
2018-11-28T19:38:57.281Z,88.84
2018-11-28T19:41:55.670Z,89.22
2018-11-28T19:44:28.687Z,89.11
2018-11-28T19:47:08.304Z,88.88
2018-11-28T19:49:40.995Z,89.24
2018-11-28T19:52:12.361Z,89.62
2018-11-28T19:54:42.447Z,89.67
2018-11-28T20:00:22.369Z,89.00
2018-11-28T20:06:05.386Z,89.25
2018-11-28T20:08:35.298Z,89.79
2018-11-28T20:11:10.958Z,89.64
2018-11-28T20:13:41.217Z,89.08
2018-11-28T20:16:11.222Z,89.17
2018-11-28T20:18:57.098Z,89.45
2018-11-28T20:21:27.543Z,89.39
2018-11-28T20:24:09.385Z,90.19
2018-11-28T20:26:55.723Z,89.13
2018-11-28T20:29:26.322Z,89.65
2018-11-28T20:35:37.068Z,89.84
2018-11-28T20:38:22.510Z,89.32
2018-11-28T20:41:16.931Z,89.34
2018-11-28T20:46:57.355Z,89.53
2018-11-28T20:49:27.353Z,89.97
2018-11-28T20:51:57.428Z,90.26
2018-11-28T20:54:27.358Z,89.92
2018-11-28T20:56:57.347Z,90.14
2018-11-28T20:59:39.504Z,89.70
2018-11-28T21:02:13.519Z,89.47
2018-11-28T21:04:43.587Z,89.60
2018-11-28T21:07:34.669Z,89.39
2018-11-28T21:10:12.222Z,89.70
2018-11-28T21:15:58.372Z,89.24
2018-11-28T21:18:28.441Z,90.34
2018-11-28T21:20:58.464Z,90.00
2018-11-28T21:26:33.829Z,89.64
2018-11-28T21:29:04.306Z,90.14
2018-11-28T21:31:35.087Z,89.34
2018-11-28T21:34:25.514Z,89.60
2018-11-28T21:40:10.257Z,89.97
2018-11-28T21:45:50.905Z,89.97
2018-11-28T21:48:20.841Z,90.05
2018-11-28T21:50:50.992Z,90.13
2018-11-28T21:53:21.057Z,89.51
2018-11-28T21:55:51.096Z,89.88
2018-11-28T21:59:01.684Z,89.80
2018-11-28T22:01:31.727Z,89.97
2018-11-28T22:04:01.734Z,90.30
2018-11-28T22:06:31.718Z,89.88
2018-11-28T22:09:01.983Z,90.22
2018-11-28T22:12:00.434Z,89.82
2018-11-28T22:14:30.433Z,89.53
2018-11-28T22:17:00.416Z,90.08
2018-11-28T22:19:30.488Z,90.21
2018-11-28T22:22:00.637Z,90.41
2018-11-28T22:24:30.790Z,90.25
2018-11-28T22:27:00.918Z,90.42
2018-11-28T22:32:40.723Z,90.46
2018-11-28T22:38:19.576Z,89.91
2018-11-28T22:40:49.511Z,90.29
2018-11-28T22:43:38.373Z,90.10
2018-11-28T22:49:17.986Z,90.40
2018-11-28T22:51:48.043Z,89.60
2018-11-28T22:54:18.152Z,89.99
2018-11-28T22:59:57.920Z,90.80
2018-11-28T23:05:29.940Z,89.80
2018-11-28T23:08:02.294Z,90.50
2018-11-28T23:10:32.277Z,90.30
2018-11-28T23:13:02.543Z,89.89
2018-11-28T23:15:50.398Z,90.73
2018-11-28T23:18:20.369Z,90.09
2018-11-28T23:23:58.917Z,90.51
2018-11-28T23:26:28.911Z,90.32
2018-11-28T23:28:58.985Z,90.60
2018-11-28T23:31:52.396Z,90.33
2018-11-28T23:34:36.802Z,89.76
2018-11-28T23:37:08.015Z,90.34
2018-11-28T23:39:39.233Z,90.55
2018-11-28T23:45:18.394Z,90.57
2018-11-28T23:47:51.839Z,90.31
2018-11-28T23:50:24.753Z,90.01
2018-11-28T23:53:07.135Z,90.00
2018-11-28T23:55:52.812Z,89.98
2018-11-28T23:58:22.849Z,90.30
